createdAt,value
2023-04-12T00:01:41.339Z,4.10
2023-04-12T00:04:07.987Z,4.20
2023-04-12T00:06:34.910Z,4.65
2023-04-12T00:09:02.483Z,4.10
2023-04-12T00:11:31.409Z,4.13
2023-04-12T00:13:58.167Z,4.40
2023-04-12T00:16:24.969Z,4.40
2023-04-12T00:18:51.660Z,4.03
2023-04-12T00:21:19.798Z,4.55
2023-04-12T00:23:47.363Z,3.35
2023-04-12T00:26:14.592Z,3.55
2023-04-12T00:28:42.302Z,4.47
2023-04-12T00:31:09.078Z,3.50
2023-04-12T00:33:36.127Z,4.03
2023-04-12T00:36:02.828Z,3.97
2023-04-12T00:38:29.519Z,3.83
2023-04-12T00:40:56.108Z,3.53
2023-04-12T00:43:23.740Z,4.05
2023-04-12T00:45:51.086Z,3.10
2023-04-12T00:48:18.920Z,3.42
2023-04-12T00:50:46.574Z,3.15
2023-04-12T00:53:17.901Z,4.05
2023-04-12T00:55:46.089Z,3.15
2023-04-12T00:58:14.379Z,3.10
2023-04-12T01:00:41.011Z,3.10
2023-04-12T01:03:09.622Z,3.33
2023-04-12T01:05:43.655Z,3.05
2023-04-12T01:08:12.988Z,2.92
2023-04-12T01:11:04.551Z,2.80
2023-04-12T01:13:46.023Z,3.03
2023-04-12T01:16:20.864Z,3.25
2023-04-12T01:18:53.961Z,3.03
2023-04-12T01:21:37.001Z,3.25
2023-04-12T01:24:23.242Z,3.03
2023-04-12T01:26:51.871Z,2.55
2023-04-12T01:29:21.448Z,2.80
2023-04-12T01:32:03.841Z,2.85
2023-04-12T01:34:33.200Z,2.10
2023-04-12T01:37:02.791Z,2.63
2023-04-12T01:39:33.808Z,2.80
2023-04-12T01:42:00.816Z,2.67
2023-04-12T01:44:27.416Z,2.65
2023-04-12T01:46:54.134Z,2.75
2023-04-12T01:49:26.857Z,2.92
2023-04-12T01:52:03.604Z,2.90
2023-04-12T01:54:36.957Z,2.55
2023-04-12T01:57:04.932Z,2.75
2023-04-12T01:59:44.829Z,1.95
2023-04-12T02:02:12.971Z,2.42
2023-04-12T02:04:41.487Z,2.30
2023-04-12T02:07:09.323Z,2.38
2023-04-12T02:09:39.288Z,2.20
2023-04-12T02:12:08.114Z,2.65
2023-04-12T02:14:34.651Z,2.80
2023-04-12T02:17:04.529Z,2.08
2023-04-12T02:19:32.249Z,1.98
2023-04-12T02:21:58.802Z,2.00
2023-04-12T02:24:25.353Z,2.30
2023-04-12T02:26:51.927Z,2.10
2023-04-12T02:29:18.533Z,2.97
2023-04-12T02:31:45.190Z,2.00
2023-04-12T02:34:13.290Z,2.40
2023-04-12T02:36:39.952Z,1.90
2023-04-12T02:39:07.893Z,1.75
2023-04-12T02:41:34.762Z,2.03
2023-04-12T02:44:01.646Z,1.67
2023-04-12T02:46:28.410Z,1.42
2023-04-12T02:48:55.445Z,1.95
2023-04-12T02:51:22.066Z,2.10
2023-04-12T02:53:48.666Z,1.80
2023-04-12T02:56:18.939Z,1.90
2023-04-12T02:58:45.858Z,1.98
2023-04-12T03:01:13.041Z,2.00
2023-04-12T03:03:39.826Z,1.92
2023-04-12T03:06:08.833Z,1.55
2023-04-12T03:08:36.103Z,1.90
2023-04-12T03:11:02.721Z,1.95
2023-04-12T03:13:29.317Z,1.42
2023-04-12T03:15:58.389Z,1.75
2023-04-12T03:18:25.225Z,1.70
2023-04-12T03:20:54.873Z,1.83
2023-04-12T03:23:21.813Z,1.80
2023-04-12T03:25:48.466Z,1.52
2023-04-12T03:28:14.994Z,1.52
2023-04-12T03:30:41.592Z,2.15
2023-04-12T03:33:08.271Z,2.05
2023-04-12T03:35:35.107Z,1.90
2023-04-12T03:38:01.717Z,1.98
2023-04-12T03:40:28.338Z,1.67
2023-04-12T03:42:54.945Z,2.17
2023-04-12T03:45:21.516Z,2.28
2023-04-12T03:47:48.148Z,1.70
2023-04-12T03:50:14.826Z,1.95
2023-04-12T03:52:41.424Z,1.60
2023-04-12T03:55:08.601Z,1.35
2023-04-12T03:57:35.340Z,1.98
2023-04-12T04:00:03.767Z,1.35
2023-04-12T04:02:31.932Z,1.30
2023-04-12T04:04:58.848Z,1.65
2023-04-12T04:07:25.723Z,1.73
2023-04-12T04:09:54.432Z,1.42
2023-04-12T04:12:20.980Z,1.30
2023-04-12T04:14:47.523Z,1.73
2023-04-12T04:17:14.109Z,1.60
2023-04-12T04:19:42.224Z,1.40
2023-04-12T04:22:10.012Z,1.65
2023-04-12T04:24:38.952Z,1.42
2023-04-12T04:27:07.264Z,1.25
2023-04-12T04:29:34.017Z,1.20
2023-04-12T04:32:01.600Z,1.20
2023-04-12T04:34:28.619Z,1.48
2023-04-12T04:36:55.374Z,1.45
2023-04-12T04:39:23.332Z,1.20
2023-04-12T04:41:54.506Z,1.40
2023-04-12T04:44:21.771Z,1.00
2023-04-12T04:46:48.910Z,1.25
2023-04-12T04:49:15.698Z,1.27
2023-04-12T04:51:42.251Z,1.63
2023-04-12T04:54:08.809Z,1.60
2023-04-12T04:56:35.357Z,1.58
2023-04-12T04:59:02.606Z,1.00
2023-04-12T05:01:29.437Z,1.08
2023-04-12T05:03:56.301Z,1.05
2023-04-12T05:06:23.395Z,1.27
2023-04-12T05:08:50.213Z,1.73
2023-04-12T05:11:17.019Z,1.40
2023-04-12T05:13:43.576Z,1.30
2023-04-12T05:16:11.330Z,1.30
2023-04-12T05:18:38.542Z,1.17
2023-04-12T05:21:05.653Z,1.45
2023-04-12T05:23:37.454Z,1.50
2023-04-12T05:26:04.740Z,1.77
2023-04-12T05:28:31.433Z,1.88
2023-04-12T05:30:58.578Z,1.23
2023-04-12T05:33:25.485Z,1.60
2023-04-12T05:35:52.116Z,1.40
2023-04-12T05:38:18.752Z,1.40
2023-04-12T05:40:45.419Z,1.58
2023-04-12T05:43:14.925Z,1.30
2023-04-12T05:45:41.919Z,1.30
2023-04-12T05:48:08.936Z,1.40
2023-04-12T05:50:35.898Z,1.70
2023-04-12T05:53:02.852Z,1.88
2023-04-12T05:55:30.022Z,1.30
2023-04-12T05:57:58.110Z,1.77
2023-04-12T06:00:24.868Z,1.60
2023-04-12T06:02:52.562Z,1.50
2023-04-12T06:05:19.371Z,1.65
2023-04-12T06:07:49.336Z,1.58
2023-04-12T06:10:17.260Z,1.98
2023-04-12T06:12:45.964Z,1.38
2023-04-12T06:15:14.675Z,1.33
2023-04-12T06:17:42.613Z,1.02
2023-04-12T06:20:09.974Z,1.67
2023-04-12T06:22:40.826Z,1.23
2023-04-12T06:25:08.151Z,1.58
2023-04-12T06:27:34.695Z,1.23
2023-04-12T06:30:01.237Z,1.45
2023-04-12T06:32:28.095Z,1.63
2023-04-12T06:34:54.648Z,1.30
2023-04-12T06:37:21.955Z,1.20
2023-04-12T06:39:48.568Z,1.25
2023-04-12T06:42:18.030Z,1.33
2023-04-12T06:44:44.727Z,1.20
2023-04-12T06:47:11.443Z,1.30
2023-04-12T06:49:39.666Z,1.83
2023-04-12T06:52:06.266Z,1.50
2023-04-12T06:54:36.130Z,1.23
2023-04-12T06:57:04.745Z,1.70
2023-04-12T06:59:31.430Z,1.30
2023-04-12T07:01:57.973Z,1.60
2023-04-12T07:04:24.626Z,1.50
2023-04-12T07:06:53.696Z,1.00
2023-04-12T07:09:20.455Z,1.30
2023-04-12T07:11:47.213Z,1.17
2023-04-12T07:14:13.777Z,1.25
2023-04-12T07:16:40.597Z,1.08
2023-04-12T07:19:09.708Z,1.00
2023-04-12T07:21:36.331Z,1.20
2023-04-12T07:24:05.949Z,1.55
2023-04-12T07:26:32.600Z,1.27
2023-04-12T07:29:01.158Z,1.70
2023-04-12T07:31:30.495Z,1.60
2023-04-12T07:33:57.206Z,1.45
2023-04-12T07:36:23.981Z,1.60
2023-04-12T07:38:55.443Z,1.80
2023-04-12T07:41:23.050Z,1.83
2023-04-12T07:43:50.130Z,1.40
2023-04-12T07:46:16.917Z,1.60
2023-04-12T07:48:44.199Z,1.85
2023-04-12T07:51:10.822Z,1.70
2023-04-12T07:53:37.468Z,1.80
2023-04-12T07:56:09.045Z,1.90
2023-04-12T07:58:35.825Z,2.05
2023-04-12T08:01:03.861Z,1.70
2023-04-12T08:03:30.626Z,1.77
2023-04-12T08:05:57.325Z,1.90
2023-04-12T08:08:24.009Z,1.92
2023-04-12T08:10:51.820Z,1.58
2023-04-12T08:13:21.004Z,1.63
2023-04-12T08:15:48.048Z,1.58
2023-04-12T08:18:15.495Z,1.50
2023-04-12T08:20:44.007Z,2.00
2023-04-12T08:23:11.803Z,2.25
2023-04-12T08:25:39.052Z,1.75
2023-04-12T08:28:08.071Z,1.23
2023-04-12T08:30:34.876Z,1.77
2023-04-12T08:33:01.486Z,1.83
2023-04-12T08:35:28.251Z,1.50
2023-04-12T08:37:54.834Z,1.70
2023-04-12T08:40:23.381Z,1.88
2023-04-12T08:42:52.510Z,1.38
2023-04-12T08:45:22.860Z,1.65
2023-04-12T08:47:49.687Z,1.33
2023-04-12T08:50:17.390Z,1.33
2023-04-12T08:52:44.008Z,1.25
2023-04-12T08:55:14.870Z,1.70
2023-04-12T08:57:42.510Z,1.40
2023-04-12T09:00:10.150Z,1.63
2023-04-12T09:02:38.387Z,1.73
2023-04-12T09:05:06.713Z,1.20
2023-04-12T09:07:36.193Z,1.70
2023-04-12T09:10:07.242Z,1.40
2023-04-12T09:12:34.503Z,1.60
2023-04-12T09:15:15.243Z,1.65
2023-04-12T09:17:42.627Z,1.50
2023-04-12T09:20:18.325Z,1.80
2023-04-12T09:22:46.498Z,1.30
2023-04-12T09:25:14.647Z,1.70
2023-04-12T09:27:48.017Z,1.83
2023-04-12T09:30:16.737Z,1.35
2023-04-12T09:32:45.624Z,2.28
2023-04-12T09:35:12.226Z,1.38
2023-04-12T09:37:41.695Z,1.73
2023-04-12T09:40:09.870Z,1.38
2023-04-12T09:42:50.409Z,1.48
2023-04-12T09:45:25.304Z,1.35
2023-04-12T09:47:54.871Z,1.60
2023-04-12T09:50:29.559Z,1.27
2023-04-12T09:52:58.523Z,1.25
2023-04-12T09:55:27.231Z,1.60
2023-04-12T09:57:56.953Z,1.20
2023-04-12T10:00:26.650Z,1.40
2023-04-12T10:02:57.529Z,1.20
2023-04-12T10:05:26.980Z,1.15
2023-04-12T10:07:55.289Z,1.00
2023-04-12T10:10:23.311Z,1.35
2023-04-12T10:12:50.947Z,1.60
2023-04-12T10:15:18.580Z,1.30
2023-04-12T10:17:51.583Z,1.42
2023-04-12T10:20:19.986Z,1.60
2023-04-12T10:22:49.583Z,1.30
2023-04-12T10:25:25.765Z,1.65
2023-04-12T10:27:52.851Z,1.17
2023-04-12T10:30:30.481Z,1.45
2023-04-12T10:33:03.999Z,1.15
2023-04-12T10:35:48.946Z,1.67
2023-04-12T10:38:18.002Z,1.42
2023-04-12T10:41:14.090Z,1.60
2023-04-12T10:43:44.514Z,1.38
2023-04-12T10:46:40.016Z,1.70
2023-04-12T10:49:11.560Z,1.63
2023-04-12T10:51:38.626Z,1.52
2023-04-12T10:54:08.021Z,1.30
2023-04-12T10:56:37.047Z,1.83
2023-04-12T10:59:05.788Z,1.40
2023-04-12T11:01:35.277Z,1.80
2023-04-12T11:04:08.332Z,1.42
2023-04-12T11:06:56.059Z,1.40
2023-04-12T11:09:44.718Z,1.13
2023-04-12T11:12:15.536Z,1.52
2023-04-12T11:14:50.652Z,1.27
2023-04-12T11:17:17.274Z,1.50
2023-04-12T11:19:44.446Z,1.63
2023-04-12T11:22:15.977Z,1.80
2023-04-12T11:24:48.229Z,1.70
2023-04-12T11:27:18.515Z,1.50
2023-04-12T11:29:47.991Z,1.77
2023-04-12T11:32:17.249Z,1.83
2023-04-12T11:34:46.316Z,1.50
2023-04-12T11:37:14.828Z,1.80
2023-04-12T11:39:46.325Z,1.48
2023-04-12T11:42:17.331Z,1.77
2023-04-12T11:44:56.320Z,2.00
2023-04-12T11:47:26.919Z,1.85
2023-04-12T11:49:55.528Z,1.90
2023-04-12T11:52:29.048Z,1.77
2023-04-12T11:54:58.673Z,1.90
2023-04-12T11:57:26.866Z,2.22
2023-04-12T11:59:53.691Z,2.15
2023-04-12T12:02:23.990Z,1.85
2023-04-12T12:04:52.022Z,1.63
2023-04-12T12:07:21.322Z,1.98
2023-04-12T12:09:50.210Z,2.30
2023-04-12T12:12:18.548Z,1.77
2023-04-12T12:14:47.406Z,2.15
2023-04-12T12:17:15.757Z,2.00
2023-04-12T12:19:46.472Z,2.10
2023-04-12T12:22:20.502Z,2.28
2023-04-12T12:24:56.990Z,2.40
2023-04-12T12:27:38.282Z,2.50
2023-04-12T12:30:07.369Z,2.22
2023-04-12T12:32:37.597Z,2.50
2023-04-12T12:35:10.097Z,2.13
2023-04-12T12:37:36.983Z,2.50
2023-04-12T12:40:14.529Z,2.28
2023-04-12T12:42:48.707Z,1.92
2023-04-12T12:45:16.641Z,2.35
2023-04-12T12:48:03.840Z,2.20
2023-04-12T12:50:32.771Z,2.28
2023-04-12T12:53:00.741Z,2.35
2023-04-12T12:55:28.912Z,2.42
2023-04-12T13:00:29.424Z,2.20
2023-04-12T13:02:56.655Z,2.42
2023-04-12T13:05:23.937Z,2.50
2023-04-12T13:07:50.722Z,2.28
2023-04-12T13:10:18.080Z,2.53
2023-04-12T13:12:44.646Z,2.20
2023-04-12T13:15:22.144Z,2.10
2023-04-12T13:17:52.575Z,2.38
2023-04-12T13:20:19.302Z,2.40
2023-04-12T13:22:46.978Z,2.03
2023-04-12T13:25:13.817Z,2.58
2023-04-12T13:27:42.272Z,2.25
2023-04-12T13:30:09.191Z,2.78
2023-04-12T13:32:35.968Z,2.03
2023-04-12T13:35:03.453Z,2.47
2023-04-12T13:37:30.153Z,2.67
2023-04-12T13:39:56.767Z,2.85
2023-04-12T13:42:23.778Z,2.70
2023-04-12T13:44:50.451Z,2.80
2023-04-12T13:47:22.252Z,2.10
2023-04-12T13:49:48.967Z,1.55
2023-04-12T13:52:16.067Z,2.08
2023-04-12T13:54:43.243Z,1.98
2023-04-12T13:57:10.296Z,2.47
2023-04-12T13:59:36.889Z,2.47
2023-04-12T14:02:04.184Z,2.45
2023-04-12T14:04:32.864Z,1.83
2023-04-12T14:06:59.487Z,2.22
2023-04-12T14:09:32.155Z,1.77
2023-04-12T14:12:01.335Z,1.70
2023-04-12T14:14:28.710Z,2.00
2023-04-12T14:17:01.674Z,1.88
2023-04-12T14:19:29.557Z,2.30
2023-04-12T14:21:56.714Z,2.05
2023-04-12T14:24:24.536Z,2.28
2023-04-12T14:26:51.150Z,3.15
2023-04-12T14:29:17.757Z,2.55
2023-04-12T14:31:44.451Z,2.60
2023-04-12T14:34:11.593Z,2.10
2023-04-12T14:36:38.586Z,2.13
2023-04-12T14:39:10.223Z,2.30
2023-04-12T14:41:38.115Z,3.33
2023-04-12T14:44:07.403Z,2.30
2023-04-12T14:46:34.071Z,2.15
2023-04-12T14:49:01.448Z,2.67
2023-04-12T14:51:29.332Z,2.63
2023-04-12T14:53:58.155Z,2.05
2023-04-12T14:56:28.829Z,3.00
2023-04-12T14:58:56.757Z,2.47
2023-04-12T15:01:24.975Z,2.97
2023-04-12T15:03:54.556Z,2.60
2023-04-12T15:06:23.623Z,2.95
2023-04-12T15:08:57.143Z,3.10
2023-04-12T15:11:28.450Z,2.85
2023-04-12T15:13:55.846Z,2.70
2023-04-12T15:16:23.016Z,2.63
2023-04-12T15:18:51.566Z,2.83
2023-04-12T15:21:18.691Z,3.00
2023-04-12T15:23:45.867Z,3.20
2023-04-12T15:26:14.013Z,3.25
2023-04-12T15:28:42.384Z,2.88
2023-04-12T15:31:09.467Z,3.47
2023-04-12T15:33:38.618Z,3.30
2023-04-12T15:36:06.020Z,3.50
2023-04-12T15:38:39.996Z,3.38
2023-04-12T15:41:07.432Z,3.05
2023-04-12T15:43:33.994Z,2.97
2023-04-12T15:46:05.781Z,2.88
2023-04-12T15:48:32.861Z,4.32
2023-04-12T15:50:59.698Z,2.78
2023-04-12T15:53:27.402Z,2.47
2023-04-12T15:55:54.914Z,2.30
2023-04-12T15:58:24.512Z,2.53
2023-04-12T16:00:52.969Z,2.92
2023-04-12T16:03:23.048Z,3.00
2023-04-12T16:05:54.566Z,3.80
2023-04-12T16:08:21.993Z,3.63
2023-04-12T16:10:50.196Z,3.75
2023-04-12T16:13:17.116Z,3.47
2023-04-12T16:15:44.051Z,3.47
2023-04-12T16:18:10.981Z,3.00
2023-04-12T16:20:37.637Z,2.60
2023-04-12T16:23:05.091Z,2.75
2023-04-12T16:25:32.205Z,3.28
2023-04-12T16:28:02.385Z,3.20
2023-04-12T16:30:31.348Z,3.33
2023-04-12T16:32:58.305Z,3.35
2023-04-12T16:35:25.126Z,3.05
2023-04-12T16:37:52.249Z,2.92
2023-04-12T16:40:19.034Z,3.05
2023-04-12T16:42:45.750Z,3.08
2023-04-12T16:45:15.277Z,3.35
2023-04-12T16:47:43.423Z,2.88
2023-04-12T16:50:12.697Z,3.60
2023-04-12T16:52:41.609Z,3.40
2023-04-12T16:55:11.299Z,3.20
2023-04-12T16:57:44.366Z,2.95
2023-04-12T17:00:28.965Z,2.30
2023-04-12T17:02:58.002Z,2.92
2023-04-12T17:05:25.438Z,3.10
2023-04-12T17:07:54.103Z,2.80
2023-04-12T17:10:22.760Z,2.80
2023-04-12T17:12:52.125Z,2.40
2023-04-12T17:15:20.880Z,3.15
2023-04-12T17:17:52.194Z,3.28
2023-04-12T17:20:21.222Z,3.75
2023-04-12T17:22:50.068Z,2.85
2023-04-12T17:25:18.714Z,3.35
2023-04-12T17:27:47.559Z,3.08
2023-04-12T17:30:15.928Z,2.60
2023-04-12T17:32:43.036Z,3.33
2023-04-12T17:35:09.994Z,2.70
2023-04-12T17:37:38.476Z,3.10
2023-04-12T17:40:06.112Z,3.00
2023-04-12T17:42:32.757Z,3.08
2023-04-12T17:45:01.878Z,2.47
2023-04-12T17:47:32.691Z,2.67
2023-04-12T17:50:00.880Z,2.65
2023-04-12T17:52:29.838Z,2.40
2023-04-12T17:54:56.583Z,3.28
2023-04-12T17:57:23.272Z,3.10
2023-04-12T17:59:49.892Z,3.50
2023-04-12T18:02:19.521Z,3.40
2023-04-12T18:04:46.813Z,2.95
2023-04-12T18:07:13.492Z,2.75
2023-04-12T18:09:44.541Z,2.72
2023-04-12T18:12:12.607Z,2.92
2023-04-12T18:14:41.974Z,3.17
2023-04-12T18:17:08.639Z,2.75
2023-04-12T18:19:36.219Z,3.30
2023-04-12T18:22:04.620Z,3.03
2023-04-12T18:24:31.818Z,3.20
2023-04-12T18:26:59.122Z,2.67
2023-04-12T18:29:26.168Z,3.30
2023-04-12T18:31:52.963Z,3.28
2023-04-12T18:34:19.741Z,3.45
2023-04-12T18:36:47.390Z,3.58
2023-04-12T18:39:14.075Z,3.10
2023-04-12T18:41:41.825Z,3.15
2023-04-12T18:44:09.336Z,3.35
2023-04-12T18:46:36.202Z,2.25
2023-04-12T18:49:04.525Z,3.75
2023-04-12T18:51:32.697Z,3.42
2023-04-12T18:54:00.454Z,3.67
2023-04-12T18:56:27.876Z,3.80
2023-04-12T18:58:56.361Z,3.75
2023-04-12T19:01:24.278Z,3.80
2023-04-12T19:03:51.426Z,4.28
2023-04-12T19:06:18.405Z,4.85
2023-04-12T19:08:45.952Z,4.50
2023-04-12T19:11:12.556Z,4.63
2023-04-12T19:13:39.316Z,3.88
2023-04-12T19:16:09.252Z,3.53
2023-04-12T19:18:36.170Z,2.80
2023-04-12T19:21:03.276Z,3.42
2023-04-12T19:23:30.424Z,2.70
2023-04-12T19:25:59.731Z,2.30
2023-04-12T19:28:27.340Z,2.08
2023-04-12T19:30:54.510Z,2.25
2023-04-12T19:33:21.222Z,2.10
2023-04-12T19:35:48.042Z,2.28
2023-04-12T19:38:15.714Z,1.80
2023-04-12T19:40:42.579Z,1.70
2023-04-12T19:43:09.275Z,1.98
2023-04-12T19:45:36.219Z,2.40
2023-04-12T19:48:02.897Z,2.20
2023-04-12T19:50:31.099Z,2.10
2023-04-12T19:52:57.733Z,2.15
2023-04-12T19:55:27.942Z,1.75
2023-04-12T19:57:56.568Z,2.15
2023-04-12T20:00:25.238Z,2.05
2023-04-12T20:02:53.870Z,1.70
2023-04-12T20:05:22.298Z,1.48
2023-04-12T20:07:49.713Z,2.03
2023-04-12T20:10:17.167Z,1.73
2023-04-12T20:12:45.526Z,1.80
2023-04-12T20:15:12.241Z,1.55
2023-04-12T20:17:43.808Z,2.10
2023-04-12T20:20:12.616Z,1.92
2023-04-12T20:22:43.172Z,1.65
2023-04-12T20:25:11.301Z,1.73
2023-04-12T20:27:39.273Z,2.15
2023-04-12T20:30:08.656Z,2.17
2023-04-12T20:32:35.938Z,2.50
2023-04-12T20:35:03.855Z,2.10
2023-04-12T20:37:30.763Z,1.80
2023-04-12T20:39:58.590Z,2.58
2023-04-12T20:42:25.241Z,2.78
2023-04-12T20:44:51.849Z,2.63
2023-04-12T20:47:19.636Z,1.90
2023-04-12T20:49:46.287Z,2.13
2023-04-12T20:52:16.832Z,1.95
2023-04-12T20:54:45.490Z,2.33
2023-04-12T20:57:12.929Z,1.55
2023-04-12T20:59:39.674Z,2.00
2023-04-12T21:02:08.717Z,2.17
2023-04-12T21:04:36.091Z,1.92
2023-04-12T21:07:03.162Z,2.40
2023-04-12T21:09:30.413Z,2.55
2023-04-12T21:11:57.868Z,2.55
2023-04-12T21:14:24.485Z,2.88
2023-04-12T21:16:51.091Z,2.10
2023-04-12T21:19:20.373Z,2.20
2023-04-12T21:21:47.197Z,2.70
2023-04-12T21:24:13.724Z,2.47
2023-04-12T21:26:42.430Z,2.08
2023-04-12T21:29:09.010Z,2.13
2023-04-12T21:31:38.852Z,1.88
2023-04-12T21:34:07.074Z,3.03
2023-04-12T21:36:34.087Z,1.70
2023-04-12T21:39:01.044Z,2.65
2023-04-12T21:41:29.506Z,1.42
2023-04-12T21:43:56.602Z,1.55
2023-04-12T21:46:27.264Z,1.92
2023-04-12T21:48:54.200Z,1.30
2023-04-12T21:51:22.615Z,1.27
2023-04-12T21:53:49.185Z,1.48
2023-04-12T21:56:15.843Z,1.65
2023-04-12T21:58:42.420Z,2.00
2023-04-12T22:01:09.239Z,1.20
2023-04-12T22:03:36.386Z,1.48
2023-04-12T22:06:05.081Z,1.63
2023-04-12T22:08:32.848Z,1.60
2023-04-12T22:11:00.155Z,1.27
2023-04-12T22:13:27.162Z,1.58
2023-04-12T22:15:53.721Z,1.40
2023-04-12T22:18:20.535Z,1.20
2023-04-12T22:20:47.768Z,1.40
2023-04-12T22:23:18.580Z,1.42
2023-04-12T22:25:45.613Z,1.25
2023-04-12T22:28:12.375Z,1.13
2023-04-12T22:30:39.315Z,1.15
2023-04-12T22:33:06.038Z,1.42
2023-04-12T22:35:35.057Z,1.23
2023-04-12T22:38:01.854Z,1.88
2023-04-12T22:40:28.491Z,1.23
2023-04-12T22:42:57.928Z,1.50
2023-04-12T22:45:24.966Z,1.98
2023-04-12T22:47:52.507Z,1.90
2023-04-12T22:50:19.499Z,1.42
2023-04-12T22:52:49.483Z,1.70
2023-04-12T22:55:17.932Z,1.30
2023-04-12T22:57:44.875Z,1.40
2023-04-12T23:00:17.082Z,1.30
2023-04-12T23:02:45.787Z,1.50
2023-04-12T23:05:12.711Z,1.38
2023-04-12T23:07:41.091Z,1.48
2023-04-12T23:10:08.724Z,2.45
2023-04-12T23:12:36.117Z,1.95
2023-04-12T23:15:02.823Z,2.00
2023-04-12T23:17:29.440Z,1.33
2023-04-12T23:19:56.051Z,1.67
2023-04-12T23:22:48.703Z,1.85
2023-04-12T23:25:37.980Z,1.75
2023-04-12T23:28:15.688Z,1.98
2023-04-12T23:30:44.302Z,1.77
2023-04-12T23:33:11.988Z,1.85
2023-04-12T23:35:41.050Z,2.10
2023-04-12T23:38:08.744Z,2.08
2023-04-12T23:40:35.379Z,2.00
2023-04-12T23:43:02.273Z,1.98
2023-04-12T23:45:28.924Z,2.45
2023-04-12T23:47:55.833Z,2.00
2023-04-12T23:50:23.450Z,1.88
2023-04-12T23:52:50.070Z,2.13
2023-04-12T23:55:17.423Z,2.40
2023-04-12T23:57:44.063Z,2.60
